createdAt,value
2018-12-06T00:00:45.814Z,97938.36
2018-12-06T00:01:48.481Z,97927.84
2018-12-06T00:02:51.686Z,97927.32
2018-12-06T00:03:56.124Z,97939.97
2018-12-06T00:04:58.853Z,97922.64
2018-12-06T00:06:06.813Z,97928.34
2018-12-06T00:07:10.190Z,97921.89
2018-12-06T00:08:12.765Z,97923.84
2018-12-06T00:09:15.376Z,97916.84
2018-12-06T00:10:17.949Z,97921.14
2018-12-06T00:11:20.573Z,97918.15
2018-12-06T00:12:23.204Z,97916.50
2018-12-06T00:13:26.122Z,97913.28
2018-12-06T00:14:28.704Z,97908.97
2018-12-06T00:15:31.637Z,97916.20
2018-12-06T00:16:34.196Z,97911.34
2018-12-06T00:17:36.745Z,97908.86
2018-12-06T00:18:39.349Z,97909.39
2018-12-06T00:19:42.209Z,97908.05
2018-12-06T00:20:45.828Z,97912.34
2018-12-06T00:21:49.066Z,97904.78
2018-12-06T00:22:52.702Z,97908.52
2018-12-06T00:23:55.306Z,97908.78
2018-12-06T00:24:57.933Z,97910.39
2018-12-06T00:26:00.959Z,97913.62
2018-12-06T00:27:04.053Z,97917.17
2018-12-06T00:28:06.648Z,97912.05
2018-12-06T00:29:09.339Z,97913.91
2018-12-06T00:30:12.566Z,97910.92
2018-12-06T00:31:17.054Z,97920.09
2018-12-06T00:32:19.941Z,97910.44
2018-12-06T00:33:22.538Z,97918.00
2018-12-06T00:34:25.119Z,97916.39
2018-12-06T00:35:28.733Z,97907.81
2018-12-06T00:36:31.801Z,97908.90
2018-12-06T00:37:34.476Z,97901.90
2018-12-06T00:38:38.275Z,97908.94
2018-12-06T00:39:40.885Z,97907.63
2018-12-06T00:40:43.562Z,97913.51
2018-12-06T00:41:46.123Z,97907.55
2018-12-06T00:42:48.751Z,97905.64
2018-12-06T00:43:51.390Z,97903.73
2018-12-06T00:44:54.480Z,97900.22
2018-12-06T00:45:57.146Z,97902.91
2018-12-06T00:46:59.706Z,97898.61
2018-12-06T00:48:02.305Z,97890.52
2018-12-06T00:49:05.899Z,97894.56
2018-12-06T00:50:09.260Z,97895.64
2018-12-06T00:51:13.406Z,97882.95
2018-12-06T00:52:16.379Z,97888.91
2018-12-06T00:53:18.980Z,97884.30
2018-12-06T00:54:21.673Z,97874.86
2018-12-06T00:55:24.232Z,97873.81
2018-12-06T00:56:26.792Z,97874.30
2018-12-06T00:57:29.812Z,97868.68
2018-12-06T00:58:32.661Z,97885.31
2018-12-06T00:59:35.231Z,97881.27
2018-12-06T01:00:38.773Z,97873.44
2018-12-06T01:01:41.380Z,97872.34
2018-12-06T01:02:43.973Z,97877.73
2018-12-06T01:03:46.972Z,97885.57
2018-12-06T01:04:49.580Z,97890.40
2018-12-06T01:05:52.156Z,97894.45
2018-12-06T01:06:54.767Z,97895.80
2018-12-06T01:07:57.358Z,97892.05
2018-12-06T01:08:59.960Z,97894.22
2018-12-06T01:10:03.047Z,97895.83
2018-12-06T01:11:05.677Z,97904.73
2018-12-06T01:12:08.294Z,97889.35
2018-12-06T01:13:10.913Z,97897.44
2018-12-06T01:14:13.511Z,97892.39
2018-12-06T01:15:16.121Z,97891.30
2018-12-06T01:16:19.015Z,97882.43
2018-12-06T01:17:21.630Z,97891.34
2018-12-06T01:18:24.254Z,97888.91
2018-12-06T01:19:26.883Z,97889.13
2018-12-06T01:20:29.467Z,97876.77
2018-12-06T01:21:32.050Z,97880.55
2018-12-06T01:22:35.045Z,97884.08
2018-12-06T01:23:37.627Z,97885.98
2018-12-06T01:24:41.073Z,97885.72
2018-12-06T01:25:43.691Z,97880.59
2018-12-06T01:26:46.266Z,97889.73
2018-12-06T01:27:48.832Z,97883.73
2018-12-06T01:28:51.832Z,97882.39
2018-12-06T01:29:54.390Z,97880.77
2018-12-06T01:30:56.997Z,97884.78
2018-12-06T01:31:59.553Z,97875.83
2018-12-06T01:33:02.128Z,97901.15
2018-12-06T01:34:04.700Z,97881.74
2018-12-06T01:35:07.659Z,97874.13
2018-12-06T01:36:10.233Z,97876.39
2018-12-06T01:37:12.841Z,97874.48
2018-12-06T01:38:15.492Z,97879.61
2018-12-06T01:39:18.085Z,97880.92
2018-12-06T01:40:20.665Z,97884.97
2018-12-06T01:41:23.664Z,97883.13
2018-12-06T01:42:26.302Z,97876.88
2018-12-06T01:43:28.846Z,97874.70
2018-12-06T01:44:31.508Z,97871.75
2018-12-06T01:45:34.166Z,97879.31
2018-12-06T01:46:37.298Z,97884.70
2018-12-06T01:47:40.169Z,97883.09
2018-12-06T01:48:42.759Z,97883.09
2018-12-06T01:49:45.308Z,97878.83
2018-12-06T01:50:47.908Z,97879.39
2018-12-06T01:51:50.603Z,97882.05
2018-12-06T01:52:53.297Z,97879.09
2018-12-06T01:53:56.279Z,97876.66
2018-12-06T01:54:58.892Z,97873.70
2018-12-06T01:56:01.471Z,97868.60
2018-12-06T01:57:04.124Z,97869.99
2018-12-06T01:58:07.761Z,97863.52
2018-12-06T01:59:10.375Z,97868.95
2018-12-06T02:00:13.530Z,97863.33
2018-12-06T02:01:16.096Z,97867.11
2018-12-06T02:02:18.698Z,97861.77
2018-12-06T02:03:24.030Z,97856.37
2018-12-06T02:04:26.610Z,97862.55
2018-12-06T02:05:34.354Z,97856.37
2018-12-06T02:06:37.317Z,97846.12
2018-12-06T02:07:39.887Z,97847.42
2018-12-06T02:08:42.487Z,97857.12
2018-12-06T02:09:45.056Z,97857.16
2018-12-06T02:10:47.676Z,97852.55
2018-12-06T02:11:50.238Z,97846.89
2018-12-06T02:12:53.173Z,97856.33
2018-12-06T02:13:55.811Z,97848.24
2018-12-06T02:14:58.447Z,97849.29
2018-12-06T02:16:01.074Z,97849.52
2018-12-06T02:17:03.651Z,97846.81
2018-12-06T02:18:06.216Z,97846.00
2018-12-06T02:19:09.814Z,97844.95
2018-12-06T02:20:12.461Z,97844.37
2018-12-06T02:21:15.066Z,97836.52
2018-12-06T02:22:18.295Z,97845.77
2018-12-06T02:23:21.008Z,97841.68
2018-12-06T02:24:23.600Z,97847.03
2018-12-06T02:25:26.605Z,97851.08
2018-12-06T02:26:29.203Z,97848.87
2018-12-06T02:27:31.765Z,97843.69
2018-12-06T02:28:34.393Z,97842.08
2018-12-06T02:29:41.997Z,97846.39
2018-12-06T02:30:44.571Z,97842.08
2018-12-06T02:31:47.535Z,97839.91
2018-12-06T02:32:50.082Z,97839.91
2018-12-06T02:33:52.669Z,97849.86
2018-12-06T02:34:55.260Z,97839.91
2018-12-06T02:35:57.911Z,97838.81
2018-12-06T02:37:00.478Z,97839.87
2018-12-06T02:38:03.497Z,97833.42
2018-12-06T02:39:06.050Z,97830.98
2018-12-06T02:40:08.591Z,97837.95
2018-12-06T02:41:11.221Z,97835.22
2018-12-06T02:42:13.785Z,97831.99
2018-12-06T02:43:16.455Z,97831.77
2018-12-06T02:44:19.557Z,97835.08
2018-12-06T02:45:22.133Z,97839.13
2018-12-06T02:46:24.724Z,97838.30
2018-12-06T02:47:27.328Z,97838.30
2018-12-06T02:48:29.925Z,97841.00
2018-12-06T02:49:32.517Z,97836.20
2018-12-06T02:50:35.583Z,97836.20
2018-12-06T02:51:38.713Z,97837.52
2018-12-06T02:52:41.754Z,97838.60
2018-12-06T02:53:44.349Z,97836.44
2018-12-06T02:54:46.912Z,97835.39
2018-12-06T02:55:49.496Z,97835.91
2018-12-06T02:56:52.588Z,97834.81
2018-12-06T02:57:55.181Z,97825.12
2018-12-06T02:58:57.759Z,97832.38
2018-12-06T03:00:00.357Z,97829.47
2018-12-06T03:01:02.992Z,97832.39
2018-12-06T03:02:05.604Z,97832.16
2018-12-06T03:03:08.618Z,97831.34
2018-12-06T03:04:11.220Z,97826.20
2018-12-06T03:05:13.791Z,97831.05
2018-12-06T03:06:16.408Z,97833.73
2018-12-06T03:07:19.204Z,97831.86
2018-12-06T03:08:22.047Z,97837.52
2018-12-06T03:09:25.098Z,97828.08
2018-12-06T03:10:27.764Z,97827.73
2018-12-06T03:11:30.368Z,97820.43
2018-12-06T03:12:33.046Z,97829.78
2018-12-06T03:13:35.645Z,97825.52
2018-12-06T03:14:38.199Z,97823.34
2018-12-06T03:15:41.135Z,97823.04
2018-12-06T03:16:43.775Z,97823.00
2018-12-06T03:17:46.375Z,97826.77
2018-12-06T03:18:48.977Z,97820.03
2018-12-06T03:19:51.556Z,97822.42
2018-12-06T03:20:54.211Z,97817.81
2018-12-06T03:21:57.092Z,97818.89
2018-12-06T03:22:59.676Z,97815.89
2018-12-06T03:24:02.298Z,97820.20
2018-12-06T03:25:04.896Z,97819.94
2018-12-06T03:26:07.532Z,97818.38
2018-12-06T03:27:10.093Z,97825.86
2018-12-06T03:28:12.958Z,97820.47
2018-12-06T03:29:15.511Z,97823.64
2018-12-06T03:30:18.138Z,97819.55
2018-12-06T03:31:20.751Z,97821.94
2018-12-06T03:32:23.366Z,97824.64
2018-12-06T03:33:25.956Z,97825.45
2018-12-06T03:34:28.816Z,97819.80
2018-12-06T03:35:31.383Z,97816.29
2018-12-06T03:36:33.984Z,97818.72
2018-12-06T03:37:36.610Z,97817.62
2018-12-06T03:38:39.200Z,97818.41
2018-12-06T03:39:41.775Z,97822.16
2018-12-06T03:40:44.400Z,97819.16
2018-12-06T03:41:46.988Z,97817.80
2018-12-06T03:42:49.545Z,97826.97
2018-12-06T03:43:52.177Z,97824.23
2018-12-06T03:44:57.833Z,97825.33
2018-12-06T03:46:00.516Z,97825.28
2018-12-06T03:47:03.243Z,97823.93
2018-12-06T03:48:05.848Z,97827.16
2018-12-06T03:49:08.408Z,97826.37
2018-12-06T03:50:11.004Z,97824.23
2018-12-06T03:51:13.562Z,97830.63
2018-12-06T03:52:16.215Z,97823.88
2018-12-06T03:53:19.088Z,97820.63
2018-12-06T03:54:21.733Z,97820.14
2018-12-06T03:55:24.295Z,97823.58
2018-12-06T03:56:26.866Z,97817.14
2018-12-06T03:57:29.452Z,97822.53
2018-12-06T03:58:32.066Z,97818.48
2018-12-06T03:59:35.086Z,97820.34
2018-12-06T04:00:37.648Z,97816.00
2018-12-06T04:01:40.286Z,97819.53
2018-12-06T04:02:42.933Z,97820.34
2018-12-06T04:03:45.581Z,97822.75
2018-12-06T04:04:48.134Z,97817.34
2018-12-06T04:05:51.024Z,97824.88
2018-12-06T04:06:53.576Z,97825.14
2018-12-06T04:07:56.152Z,97825.09
2018-12-06T04:08:58.730Z,97818.39
2018-12-06T04:10:01.695Z,97815.13
2018-12-06T04:11:04.518Z,97817.25
2018-12-06T04:12:07.535Z,97816.69
2018-12-06T04:13:10.229Z,97821.52
2018-12-06T04:14:12.960Z,97824.26
2018-12-06T04:15:15.598Z,97823.13
2018-12-06T04:16:18.202Z,97822.30
2018-12-06T04:17:20.834Z,97824.20
2018-12-06T04:18:23.751Z,97822.60
2018-12-06T04:19:26.372Z,97821.52
2018-12-06T04:20:28.972Z,97825.00
2018-12-06T04:21:31.538Z,97821.00
2018-12-06T04:22:34.144Z,97828.48
2018-12-06T04:23:36.814Z,97825.56
2018-12-06T04:24:39.742Z,97826.86
2018-12-06T04:25:42.417Z,97820.64
2018-12-06T04:26:45.170Z,97830.09
2018-12-06T04:27:47.775Z,97827.91
2018-12-06T04:28:50.788Z,97832.74
2018-12-06T04:29:53.386Z,97826.81
2018-12-06T04:30:57.297Z,97830.56
2018-12-06T04:31:59.941Z,97823.25
2018-12-06T04:33:02.554Z,97824.32
2018-12-06T04:34:05.251Z,97822.77
2018-12-06T04:35:07.886Z,97826.30
2018-12-06T04:36:10.461Z,97825.78
2018-12-06T04:37:14.079Z,97822.60
2018-12-06T04:38:16.736Z,97820.20
2018-12-06T04:39:19.366Z,97820.44
2018-12-06T04:40:21.975Z,97818.04
2018-12-06T04:41:27.766Z,97816.95
2018-12-06T04:42:30.657Z,97815.91
2018-12-06T04:43:33.289Z,97815.09
2018-12-06T04:44:35.940Z,97812.90
2018-12-06T04:45:38.567Z,97816.95
2018-12-06T04:46:41.217Z,97814.25
2018-12-06T04:47:43.889Z,97809.11
2018-12-06T04:48:47.108Z,97810.16
2018-12-06T04:49:49.785Z,97808.80
2018-12-06T04:50:52.419Z,97805.80
2018-12-06T04:51:55.112Z,97806.87
2018-12-06T04:52:57.765Z,97808.50
2018-12-06T04:54:00.427Z,97808.50
2018-12-06T04:55:03.054Z,97805.80
2018-12-06T04:56:08.700Z,97808.45
2018-12-06T04:57:11.322Z,97813.58
2018-12-06T04:58:13.955Z,97806.83
2018-12-06T04:59:16.602Z,97815.20
2018-12-06T05:00:20.259Z,97810.62
2018-12-06T05:01:25.075Z,97816.76
2018-12-06T05:02:27.724Z,97815.36
2018-12-06T05:03:30.313Z,97819.71
2018-12-06T05:04:32.987Z,97821.84
2018-12-06T05:05:35.644Z,97820.27
2018-12-06T05:06:38.560Z,97821.06
2018-12-06T05:07:41.205Z,97821.31
2018-12-06T05:08:43.839Z,97824.45
2018-12-06T05:09:46.465Z,97823.41
2018-12-06T05:10:49.135Z,97816.66
2018-12-06T05:11:51.740Z,97813.48
2018-12-06T05:12:55.367Z,97816.96
2018-12-06T05:13:58.020Z,97821.27
2018-12-06T05:15:00.814Z,97820.70
2018-12-06T05:16:03.483Z,97823.10
2018-12-06T05:17:06.140Z,97826.06
2018-12-06T05:18:08.841Z,97822.83
2018-12-06T05:19:11.742Z,97826.62
2018-12-06T05:20:14.325Z,97825.75
2018-12-06T05:21:16.905Z,97826.06
2018-12-06T05:22:19.523Z,97829.02
2018-12-06T05:23:22.111Z,97825.22
2018-12-06T05:24:24.795Z,97823.56
2018-12-06T05:25:27.725Z,97833.83
2018-12-06T05:26:30.328Z,97823.56
2018-12-06T05:27:32.972Z,97827.36
2018-12-06T05:28:35.678Z,97828.97
2018-12-06T05:29:38.285Z,97823.05
2018-12-06T05:30:41.887Z,97823.05
2018-12-06T05:31:44.837Z,97825.53
2018-12-06T05:32:47.414Z,97822.52
2018-12-06T05:33:50.040Z,97833.02
2018-12-06T05:34:52.635Z,97833.78
2018-12-06T05:35:55.343Z,97841.06
2018-12-06T05:36:58.280Z,97840.58
2018-12-06T05:38:02.539Z,97845.98
2018-12-06T05:39:05.778Z,97842.72
2018-12-06T05:40:08.747Z,97845.72
2018-12-06T05:41:11.393Z,97841.95
2018-12-06T05:42:14.051Z,97835.77
2018-12-06T05:43:16.685Z,97835.45
2018-12-06T05:44:19.773Z,97831.61
2018-12-06T05:45:22.384Z,97828.08
2018-12-06T05:46:24.986Z,97833.22
2018-12-06T05:47:27.592Z,97840.76
2018-12-06T05:48:30.230Z,97840.23
2018-12-06T05:49:32.869Z,97846.16
2018-12-06T05:50:37.282Z,97853.98
2018-12-06T05:51:40.022Z,97860.42
2018-12-06T05:52:42.679Z,97865.22
2018-12-06T05:53:45.286Z,97864.42
2018-12-06T05:54:48.096Z,97867.91
2018-12-06T05:55:50.748Z,97861.00
2018-12-06T05:56:53.852Z,97872.88
2018-12-06T05:57:56.507Z,97875.02
2018-12-06T05:58:59.087Z,97875.58
2018-12-06T06:00:01.704Z,97872.83
2018-12-06T06:01:04.375Z,97872.83
2018-12-06T06:02:07.028Z,97874.92
2018-12-06T06:03:10.306Z,97874.09
2018-12-06T06:04:12.954Z,97861.58
2018-12-06T06:05:15.584Z,97864.48
2018-12-06T06:06:18.240Z,97863.62
2018-12-06T06:07:20.894Z,97867.50
2018-12-06T06:08:23.594Z,97867.81
2018-12-06T06:09:26.633Z,97862.37
2018-12-06T06:10:29.297Z,97869.94
2018-12-06T06:11:32.030Z,97872.08
2018-12-06T06:12:34.717Z,97881.22
2018-12-06T06:13:37.333Z,97879.65
2018-12-06T06:14:40.006Z,97876.69
2018-12-06T06:15:43.089Z,97885.58
2018-12-06T06:16:45.844Z,97889.33
2018-12-06T06:17:48.501Z,97891.98
2018-12-06T06:18:51.332Z,97888.18
2018-12-06T06:19:54.008Z,97895.75
2018-12-06T06:20:56.620Z,97890.58
2018-12-06T06:21:59.742Z,97889.79
2018-12-06T06:23:02.350Z,97890.35
2018-12-06T06:24:05.014Z,97888.44
2018-12-06T06:25:07.625Z,97889.23
2018-12-06T06:26:10.271Z,97881.69
2018-12-06T06:27:12.945Z,97882.47
2018-12-06T06:28:16.733Z,97889.23
2018-12-06T06:29:19.401Z,97893.26
2018-12-06T06:43:53.719Z,97915.20
2018-12-06T06:44:56.830Z,97911.92
2018-12-06T06:46:00.002Z,97910.83
2018-12-06T06:47:02.648Z,97910.01
2018-12-06T06:48:05.730Z,97914.88
2018-12-06T06:49:13.875Z,97913.27
2018-12-06T06:50:15.158Z,97914.11
2018-12-06T06:52:28.811Z,97921.38
2018-12-06T06:53:31.442Z,97924.81
2018-12-06T06:54:34.125Z,97926.42
2018-12-06T06:55:38.287Z,97927.47
2018-12-06T06:56:41.905Z,97935.31
2018-12-06T06:57:45.307Z,97931.52
2018-12-06T06:58:47.969Z,97931.22
2018-12-06T06:59:50.675Z,97930.98
2018-12-06T07:00:53.458Z,97931.27
2018-12-06T07:02:03.667Z,97933.97
2018-12-06T07:03:13.492Z,97928.29
2018-12-06T07:04:16.144Z,97934.17
2018-12-06T07:05:18.766Z,97942.28
2018-12-06T07:06:23.113Z,97933.38
2018-12-06T07:07:25.742Z,97935.22
2018-12-06T07:08:28.835Z,97934.69
2018-12-06T07:09:32.326Z,97944.14
2018-12-06T07:10:35.007Z,97942.53
2018-12-06T07:11:37.611Z,97935.58
2018-12-06T07:12:40.287Z,97937.18
2018-12-06T07:13:43.232Z,97933.64
2018-12-06T07:14:46.229Z,97934.69
2018-12-06T07:15:52.082Z,97935.52
2018-12-06T07:16:55.814Z,97929.59
2018-12-06T07:17:58.464Z,97939.05
2018-12-06T07:19:01.208Z,97933.34
2018-12-06T07:20:04.837Z,97933.03
2018-12-06T07:21:07.587Z,97932.43
2018-12-06T07:22:10.255Z,97935.30
2018-12-06T07:23:14.046Z,97935.25
2018-12-06T07:24:16.632Z,97937.12
2018-12-06T07:25:19.284Z,97933.73
2018-12-06T07:26:22.575Z,97938.31
2018-12-06T07:27:25.229Z,97940.23
2018-12-06T07:28:28.008Z,97933.73
2018-12-06T07:29:30.714Z,97940.17
2018-12-06T07:30:33.362Z,97943.92
2018-12-06T07:31:36.035Z,97943.14
2018-12-06T07:32:38.984Z,97947.19
2018-12-06T07:33:41.656Z,97956.03
2018-12-06T07:34:44.276Z,97958.16
2018-12-06T07:35:46.977Z,97960.86
2018-12-06T07:36:49.641Z,97960.55
2018-12-06T07:37:52.331Z,97973.76
2018-12-06T07:38:55.440Z,97971.00
2018-12-06T07:39:58.664Z,97968.30
2018-12-06T07:41:02.110Z,97972.30
2018-12-06T07:42:05.404Z,97972.81
2018-12-06T07:43:08.114Z,97971.52
2018-12-06T07:44:10.811Z,97980.62
2018-12-06T07:45:13.930Z,97978.70
2018-12-06T07:47:25.814Z,97986.77
2018-12-06T07:48:28.565Z,97990.19
2018-12-06T07:49:31.859Z,97989.37
2018-12-06T07:50:34.498Z,97995.34
2018-12-06T07:51:37.140Z,97989.98
2018-12-06T07:52:39.813Z,97985.67
2018-12-06T07:53:42.461Z,97988.16
2018-12-06T07:54:45.097Z,97989.27
2018-12-06T07:55:47.703Z,97984.47
2018-12-06T07:56:51.999Z,97985.25
2018-12-06T07:57:55.324Z,97994.23
2018-12-06T07:58:57.995Z,97999.13
2018-12-06T08:00:00.590Z,97998.29
2018-12-06T08:01:03.276Z,98004.28
2018-12-06T08:02:06.633Z,98003.34
2018-12-06T08:03:10.705Z,98003.81
2018-12-06T08:04:13.929Z,98001.99
2018-12-06T08:05:16.576Z,98003.66
2018-12-06T08:06:20.155Z,97999.19
2018-12-06T08:07:24.370Z,97990.88
2018-12-06T08:08:27.210Z,97993.78
2018-12-06T08:09:30.408Z,97987.07
2018-12-06T08:10:34.211Z,97983.22
2018-12-06T08:11:38.678Z,97989.87
2018-12-06T08:12:41.533Z,97982.22
2018-12-06T08:13:44.170Z,97982.59
2018-12-06T08:14:46.800Z,97979.30
2018-12-06T08:15:49.796Z,97986.06
2018-12-06T08:16:52.478Z,97995.53
2018-12-06T08:17:55.788Z,97995.89
2018-12-06T08:18:58.517Z,97995.33
2018-12-06T08:20:02.599Z,97997.78
2018-12-06T08:21:05.219Z,97996.73
2018-12-06T08:22:08.573Z,97993.98
2018-12-06T08:23:11.834Z,97997.52
2018-12-06T08:24:15.117Z,98001.42
2018-12-06T08:25:18.807Z,97996.07
2018-12-06T08:26:21.480Z,97995.17
2018-12-06T08:27:24.151Z,97998.92
2018-12-06T08:28:27.591Z,97996.06
2018-12-06T08:29:30.918Z,98000.63
2018-12-06T08:30:34.281Z,97998.13
2018-12-06T08:31:36.974Z,98001.52
2018-12-06T08:32:39.770Z,97999.57
2018-12-06T08:33:42.789Z,97997.59
2018-12-06T08:34:45.369Z,97997.29
2018-12-06T08:35:48.877Z,98001.66
2018-12-06T08:36:51.721Z,98002.64
2018-12-06T08:37:54.410Z,98005.67
2018-12-06T08:38:57.138Z,98003.34
2018-12-06T08:40:00.074Z,97998.18
2018-12-06T08:41:03.266Z,97996.27
2018-12-06T08:42:06.485Z,98006.78
2018-12-06T08:43:09.135Z,98004.37
2018-12-06T08:44:11.806Z,98007.39
2018-12-06T08:45:16.125Z,98002.88
2018-12-06T08:46:23.623Z,98000.69
2018-12-06T08:47:26.237Z,98001.73
2018-12-06T08:48:28.880Z,98001.98
2018-12-06T08:49:31.618Z,98000.06
2018-12-06T08:50:35.225Z,98001.73
2018-12-06T08:51:38.173Z,97993.36
2018-12-06T08:52:41.625Z,97998.29
2018-12-06T08:53:44.214Z,97998.65
2018-12-06T08:54:46.909Z,98001.09
2018-12-06T08:55:50.279Z,98003.44
2018-12-06T08:56:52.959Z,97999.33
2018-12-06T08:57:55.635Z,98003.08
2018-12-06T08:58:58.652Z,97997.67
2018-12-06T09:00:01.326Z,97994.23
2018-12-06T09:01:05.706Z,97993.36
2018-12-06T09:02:08.450Z,97995.53
2018-12-06T09:03:11.305Z,97997.98
2018-12-06T09:04:14.600Z,97994.48
2018-12-06T09:05:17.585Z,97998.71
2018-12-06T09:06:21.363Z,97996.20
2018-12-06T09:07:24.822Z,98004.07
2018-12-06T09:08:27.844Z,97994.58
2018-12-06T09:09:31.208Z,97999.31
2018-12-06T09:10:34.893Z,98002.22
2018-12-06T09:11:39.883Z,98001.91
2018-12-06T09:12:50.266Z,98001.18
2018-12-06T09:13:53.930Z,97998.95
2018-12-06T09:14:56.817Z,97995.66
2018-12-06T09:16:00.261Z,97996.75
2018-12-06T09:17:02.907Z,97999.27
2018-12-06T09:18:06.355Z,98003.83
2018-12-06T09:19:08.968Z,98001.12
2018-12-06T09:20:12.577Z,98001.12
2018-12-06T09:21:15.338Z,98003.06
2018-12-06T09:22:18.236Z,98003.02
2018-12-06T09:23:21.033Z,98005.91
2018-12-06T09:24:24.292Z,98012.09
2018-12-06T09:25:27.033Z,98008.82
2018-12-06T09:26:29.689Z,98009.55
2018-12-06T09:27:36.256Z,98013.87
2018-12-06T09:28:38.941Z,98013.08
2018-12-06T09:29:41.639Z,98015.53
2018-12-06T09:30:44.618Z,98013.08
2018-12-06T09:31:47.343Z,98012.88
2018-12-06T09:32:51.283Z,98020.74
2018-12-06T09:33:54.764Z,98021.84
2018-12-06T09:34:57.768Z,98026.09
2018-12-06T09:36:00.392Z,98024.69
2018-12-06T09:37:04.714Z,98032.81
2018-12-06T09:38:07.425Z,98026.61
2018-12-06T09:39:11.247Z,98021.73
2018-12-06T09:40:14.720Z,98023.03
2018-12-06T09:41:18.953Z,98020.24
2018-12-06T09:42:21.603Z,98024.47
2018-12-06T09:43:24.705Z,98036.59
2018-12-06T09:44:27.455Z,98031.94
2018-12-06T09:45:30.775Z,98035.44
2018-12-06T09:46:35.593Z,98035.44
2018-12-06T09:47:38.579Z,98030.59
2018-12-06T09:48:41.630Z,98036.90
2018-12-06T09:49:45.748Z,98034.45
2018-12-06T09:50:50.347Z,98037.47
2018-12-06T09:51:54.278Z,98032.53
2018-12-06T09:52:56.973Z,98037.09
2018-12-06T09:54:00.208Z,98039.19
2018-12-06T09:55:04.088Z,98042.09
2018-12-06T09:56:06.856Z,98037.75
2018-12-06T09:57:09.729Z,98043.11
2018-12-06T09:58:13.044Z,98045.56
2018-12-06T09:59:15.749Z,98043.39
2018-12-06T10:00:18.717Z,98052.92
2018-12-06T10:01:22.321Z,98050.21
2018-12-06T10:02:25.878Z,98053.73
2018-12-06T10:03:29.103Z,98054.78
2018-12-06T10:04:33.280Z,98058.78
2018-12-06T10:05:35.887Z,98064.45
2018-12-06T10:06:38.513Z,98058.47
2018-12-06T10:07:42.026Z,98056.73
2018-12-06T10:08:45.700Z,98051.59
2018-12-06T10:09:48.356Z,98047.53
2018-12-06T10:10:50.990Z,98050.75
2018-12-06T10:11:53.735Z,98048.23
2018-12-06T10:12:56.404Z,98046.52
2018-12-06T10:13:59.976Z,98052.97
2018-12-06T10:15:02.627Z,98055.50
2018-12-06T10:16:06.197Z,98050.84
2018-12-06T10:17:10.127Z,98045.12
2018-12-06T10:18:12.918Z,98052.45
2018-12-06T10:19:15.639Z,98044.55
2018-12-06T10:20:19.701Z,98037.78
2018-12-06T10:22:31.585Z,98032.14
2018-12-06T10:23:35.015Z,98030.22
2018-12-06T10:24:37.668Z,98030.78
2018-12-06T10:25:40.383Z,98030.72
2018-12-06T10:26:43.592Z,98022.28
2018-12-06T10:27:46.991Z,98020.62
2018-12-06T10:28:49.672Z,98014.03
2018-12-06T10:29:52.382Z,98012.88
2018-12-06T10:30:55.027Z,98007.52
2018-12-06T10:31:57.658Z,98012.88
2018-12-06T10:33:01.559Z,98012.88
2018-12-06T10:34:05.234Z,98007.39
2018-12-06T10:35:07.901Z,97996.17
2018-12-06T10:36:10.671Z,97996.42
2018-12-06T10:37:13.283Z,98001.53
2018-12-06T10:38:18.160Z,98003.64
2018-12-06T10:39:21.301Z,98010.50
2018-12-06T10:40:24.538Z,98017.78
2018-12-06T10:41:27.621Z,98017.47
2018-12-06T10:42:31.368Z,98018.34
2018-12-06T10:43:34.341Z,98017.47
2018-12-06T10:44:37.156Z,98016.30
2018-12-06T10:45:40.199Z,98012.73
2018-12-06T10:46:43.884Z,98023.51
2018-12-06T10:47:47.203Z,98019.69
2018-12-06T10:48:50.306Z,98015.38
2018-12-06T10:49:57.114Z,98023.57
2018-12-06T10:51:00.679Z,98023.31
2018-12-06T10:52:03.442Z,98024.34
2018-12-06T10:53:06.479Z,98020.48
2018-12-06T10:54:09.746Z,98017.33
2018-12-06T10:55:12.404Z,98022.28
2018-12-06T10:56:16.343Z,98015.76
2018-12-06T10:57:20.227Z,98020.30
2018-12-06T10:58:23.273Z,98018.09
2018-12-06T10:59:25.936Z,98023.69
2018-12-06T11:00:33.698Z,98015.97
2018-12-06T11:01:41.535Z,98018.61
2018-12-06T11:02:53.800Z,98023.24
2018-12-06T11:04:01.887Z,98022.07
2018-12-06T11:05:04.646Z,98029.75
2018-12-06T11:06:07.322Z,98022.41
2018-12-06T11:07:10.351Z,98028.08
2018-12-06T11:08:13.125Z,98021.55
2018-12-06T11:09:17.575Z,98031.11
2018-12-06T11:10:20.215Z,98038.92
2018-12-06T11:11:26.415Z,98031.67
2018-12-06T11:12:29.338Z,98038.67
2018-12-06T11:13:33.674Z,98038.32
2018-12-06T11:14:37.889Z,98039.17
2018-12-06T11:15:42.215Z,98038.14
2018-12-06T11:16:45.938Z,98039.36
2018-12-06T11:17:48.637Z,98037.94
2018-12-06T11:18:51.882Z,98033.08
2018-12-06T11:19:54.756Z,98027.27
2018-12-06T11:20:58.345Z,98033.41
2018-12-06T11:22:02.148Z,98032.88
2018-12-06T11:23:06.908Z,98037.66
2018-12-06T11:24:10.749Z,98033.84
2018-12-06T11:25:13.721Z,98034.37
2018-12-06T11:26:16.813Z,98025.34
2018-12-06T11:27:19.551Z,98023.20
2018-12-06T11:28:23.744Z,98025.31
2018-12-06T11:29:27.445Z,98028.67
2018-12-06T11:42:58.112Z,98030.34
2018-12-06T11:44:01.813Z,98029.63
2018-12-06T11:45:04.845Z,98032.66
2018-12-06T11:46:08.120Z,98034.48
2018-12-06T11:47:10.788Z,98030.02
2018-12-06T11:48:16.134Z,98033.27
2018-12-06T11:49:19.921Z,98022.99
2018-12-06T11:50:22.591Z,98025.56
2018-12-06T11:51:26.513Z,98019.20
2018-12-06T11:52:29.211Z,98020.23
2018-12-06T11:53:32.836Z,98031.62
2018-12-06T11:54:36.718Z,98031.41
2018-12-06T11:55:39.955Z,98030.27
2018-12-06T11:56:43.643Z,98032.81
2018-12-06T11:57:46.271Z,98032.59
2018-12-06T11:58:49.041Z,98034.98
2018-12-06T11:59:53.680Z,98032.88
2018-12-06T12:00:57.409Z,98032.30
2018-12-06T12:02:00.719Z,98029.28
2018-12-06T12:03:03.422Z,98036.78
2018-12-06T12:04:06.190Z,98032.33
2018-12-06T12:05:09.367Z,98034.32
2018-12-06T12:06:12.758Z,98032.42
2018-12-06T12:07:15.495Z,98035.84
2018-12-06T12:08:19.158Z,98028.73
2018-12-06T12:09:22.917Z,98023.17
2018-12-06T12:10:26.354Z,98026.45
2018-12-06T12:11:32.294Z,98024.06
2018-12-06T12:12:37.611Z,98016.28
2018-12-06T12:13:41.063Z,98024.30
2018-12-06T12:14:45.207Z,98016.53
2018-12-06T12:15:48.221Z,98016.95
2018-12-06T12:16:51.552Z,98022.92
2018-12-06T12:17:55.682Z,98025.27
2018-12-06T12:18:59.391Z,98024.08
2018-12-06T12:20:05.433Z,98019.92
2018-12-06T12:21:09.535Z,98033.89
2018-12-06T12:22:15.229Z,98035.41
2018-12-06T12:23:21.925Z,98040.92
2018-12-06T12:24:26.751Z,98037.50
2018-12-06T12:25:30.545Z,98039.98
2018-12-06T12:26:35.984Z,98042.13
2018-12-06T12:27:44.685Z,98035.99
2018-12-06T12:28:47.381Z,98038.72
2018-12-06T12:29:50.781Z,98044.38
2018-12-06T12:30:54.232Z,98033.50
2018-12-06T12:32:02.607Z,98031.94
2018-12-06T12:33:08.833Z,98041.20
2018-12-06T12:34:13.358Z,98038.73
2018-12-06T12:35:18.808Z,98040.88
2018-12-06T12:36:28.773Z,98046.63
2018-12-06T12:37:33.519Z,98047.99
2018-12-06T12:38:38.690Z,98043.02
2018-12-06T12:39:49.269Z,98048.94
2018-12-06T12:40:54.329Z,98049.02
2018-12-06T12:41:58.247Z,98045.98
2018-12-06T12:43:02.270Z,98049.02
2018-12-06T12:44:05.966Z,98041.03
2018-12-06T12:45:08.671Z,98038.16
2018-12-06T12:46:12.230Z,98037.13
2018-12-06T12:47:15.555Z,98037.58
2018-12-06T12:48:20.202Z,98036.01
2018-12-06T12:49:24.164Z,98040.88
2018-12-06T12:50:27.571Z,98040.46
2018-12-06T12:51:31.352Z,98039.75